createdAt,value
2023-05-05T00:01:12.796Z,14.15
2023-05-05T00:06:15.949Z,15.73
2023-05-05T00:11:20.470Z,13.82
2023-05-05T00:16:24.001Z,12.10
2023-05-05T00:21:28.084Z,15.98
2023-05-05T00:26:32.601Z,11.98
2023-05-05T00:31:35.930Z,14.23
2023-05-05T00:36:39.155Z,16.30
2023-05-05T00:41:43.629Z,10.60
2023-05-05T00:46:46.896Z,10.93
2023-05-05T00:51:50.086Z,12.90
2023-05-05T00:56:54.646Z,11.70
2023-05-05T01:01:57.810Z,12.48
2023-05-05T01:07:04.981Z,13.75
2023-05-05T01:12:13.172Z,13.45
2023-05-05T01:17:18.347Z,11.95
2023-05-05T01:22:27.634Z,12.65
2023-05-05T01:27:45.896Z,13.65
2023-05-05T01:32:51.934Z,14.77
2023-05-05T01:38:00.233Z,15.93
2023-05-05T01:43:04.852Z,18.85
2023-05-05T01:48:11.657Z,19.27
2023-05-05T01:53:17.629Z,20.95
2023-05-05T01:58:22.756Z,23.77
2023-05-05T02:03:28.633Z,22.27
2023-05-05T02:08:32.549Z,22.75
2023-05-05T02:13:36.651Z,21.55
2023-05-05T02:18:41.589Z,24.20
2023-05-05T02:23:44.781Z,25.42
2023-05-05T02:28:49.096Z,21.77
2023-05-05T02:33:57.073Z,22.08
2023-05-05T02:39:04.838Z,21.27
2023-05-05T02:44:13.685Z,23.92
2023-05-05T02:49:18.571Z,22.60
2023-05-05T02:54:22.727Z,24.15
2023-05-05T02:59:31.978Z,22.75
2023-05-05T03:04:40.826Z,28.25
2023-05-05T03:09:46.801Z,27.88
2023-05-05T03:14:52.777Z,26.45
2023-05-05T03:19:57.557Z,24.00
2023-05-05T03:25:00.942Z,23.55
2023-05-05T03:30:04.451Z,21.85
2023-05-05T03:35:11.948Z,25.40
2023-05-05T03:40:15.306Z,26.60
2023-05-05T03:45:18.621Z,30.65
2023-05-05T03:50:24.354Z,23.27
2023-05-05T03:55:27.921Z,24.63
2023-05-05T04:00:31.093Z,23.90
2023-05-05T04:05:36.165Z,28.10
2023-05-05T04:10:39.314Z,31.70
2023-05-05T04:15:45.360Z,27.75
2023-05-05T04:20:50.539Z,29.60
2023-05-05T04:25:54.004Z,31.75
2023-05-05T04:30:57.604Z,30.20
2023-05-05T04:36:02.377Z,23.77
2023-05-05T04:41:06.321Z,26.45
2023-05-05T04:46:10.642Z,21.40
2023-05-05T04:51:15.890Z,24.95
2023-05-05T04:56:19.098Z,22.92
2023-05-05T05:01:22.421Z,26.67
2023-05-05T05:06:27.266Z,23.10
2023-05-05T05:11:30.600Z,21.50
2023-05-05T05:16:33.958Z,18.92
2023-05-05T05:21:38.765Z,17.30
2023-05-05T05:26:41.976Z,17.95
2023-05-05T05:31:45.449Z,17.35
2023-05-05T05:36:51.809Z,33.67
2023-05-05T05:41:55.730Z,15.05
2023-05-05T05:46:58.951Z,13.25
2023-05-05T05:52:03.513Z,11.45
2023-05-05T05:57:07.158Z,12.30
2023-05-05T06:02:10.686Z,11.25
2023-05-05T06:07:15.263Z,12.27
2023-05-05T06:12:18.525Z,9.93
2023-05-05T06:17:21.709Z,9.07
2023-05-05T06:22:26.367Z,11.23
2023-05-05T06:27:30.497Z,12.85
2023-05-05T06:32:33.701Z,13.73
2023-05-05T06:37:38.385Z,12.90
2023-05-05T06:42:41.544Z,13.00
2023-05-05T06:47:49.563Z,12.95
2023-05-05T06:52:54.162Z,14.00
2023-05-05T06:57:57.368Z,17.20
2023-05-05T07:03:00.572Z,15.65
2023-05-05T07:08:05.133Z,16.45
2023-05-05T07:13:08.585Z,17.33
2023-05-05T07:18:11.892Z,16.67
2023-05-05T07:23:16.368Z,19.42
2023-05-05T07:28:19.738Z,19.35
2023-05-05T07:33:22.869Z,22.60
2023-05-05T07:38:28.561Z,18.80
2023-05-05T07:43:31.889Z,17.30
2023-05-05T07:48:34.995Z,17.58
2023-05-05T07:53:39.567Z,14.73
2023-05-05T07:58:42.751Z,14.15
2023-05-05T08:03:46.348Z,15.18
2023-05-05T08:08:51.193Z,10.77
2023-05-05T08:13:54.426Z,12.27
2023-05-05T08:18:57.614Z,12.82
2023-05-05T08:24:03.348Z,15.38
2023-05-05T08:29:06.629Z,13.07
2023-05-05T08:34:09.942Z,13.80
2023-05-05T08:39:14.412Z,12.68
2023-05-05T08:44:17.878Z,12.45
2023-05-05T08:49:21.396Z,9.35
2023-05-05T08:54:28.308Z,14.27
2023-05-05T08:59:32.936Z,11.32
2023-05-05T09:04:36.022Z,14.35
2023-05-05T09:09:40.696Z,10.05
2023-05-05T09:14:43.795Z,16.83
2023-05-05T09:20:03.379Z,13.15
2023-05-05T09:25:10.154Z,10.15
2023-05-05T09:30:15.570Z,10.63
2023-05-05T09:35:19.541Z,11.23
2023-05-05T09:40:24.038Z,8.52
2023-05-05T09:45:28.207Z,11.15
2023-05-05T09:50:32.661Z,9.63
2023-05-05T09:55:38.105Z,13.25
2023-05-05T10:00:41.219Z,12.65
2023-05-05T10:05:48.234Z,8.70
2023-05-05T10:10:53.559Z,79.40
2023-05-05T10:15:57.322Z,10.43
2023-05-05T10:21:01.218Z,8.30
2023-05-05T10:26:07.087Z,7.90
2023-05-05T10:31:24.162Z,12.82
2023-05-05T10:36:30.043Z,10.20
2023-05-05T10:41:35.174Z,10.45
2023-05-05T10:46:39.018Z,9.75
2023-05-05T10:51:47.548Z,10.23
2023-05-05T10:56:52.728Z,6.38
2023-05-05T11:01:55.889Z,8.60
2023-05-05T11:07:17.714Z,6.03
2023-05-05T11:12:22.199Z,8.85
2023-05-05T11:17:40.136Z,6.53
2023-05-05T11:23:02.068Z,8.60
2023-05-05T11:28:07.017Z,6.72
2023-05-05T11:33:25.636Z,10.10
2023-05-05T11:38:39.612Z,4.05
2023-05-05T11:43:44.374Z,2.95
2023-05-05T11:48:47.947Z,4.15
2023-05-05T11:53:51.274Z,5.35
2023-05-05T11:59:09.709Z,3.63
2023-05-05T12:04:14.717Z,4.38
2023-05-05T12:09:18.249Z,10.40
2023-05-05T12:14:21.937Z,3.95
2023-05-05T12:19:29.995Z,4.63
2023-05-05T12:24:33.063Z,3.20
2023-05-05T12:29:36.191Z,4.93
2023-05-05T12:34:40.682Z,3.13
2023-05-05T12:39:43.761Z,3.22
2023-05-05T12:44:46.893Z,6.70
2023-05-05T12:49:52.620Z,3.40
2023-05-05T12:54:56.186Z,4.57
2023-05-05T12:59:59.265Z,6.95
2023-05-05T13:05:03.754Z,5.13
2023-05-05T13:10:08.178Z,4.15
2023-05-05T13:15:12.085Z,4.65
2023-05-05T13:20:16.677Z,3.13
2023-05-05T13:25:19.790Z,2.75
2023-05-05T13:30:22.934Z,6.03
2023-05-05T13:35:27.416Z,2.47
2023-05-05T13:40:30.485Z,19.70
2023-05-05T13:45:34.104Z,5.10
2023-05-05T13:50:38.910Z,6.72
2023-05-05T13:55:42.434Z,4.53
2023-05-05T14:00:45.713Z,2.78
2023-05-05T14:05:50.999Z,3.60
2023-05-05T14:10:54.103Z,7.10
2023-05-05T14:15:58.447Z,4.05
2023-05-05T14:21:02.965Z,4.70
2023-05-05T14:26:06.191Z,8.50
2023-05-05T14:31:09.301Z,4.45
2023-05-05T14:36:14.327Z,4.57
2023-05-05T14:41:17.493Z,4.57
2023-05-05T14:46:20.839Z,5.03
2023-05-05T14:51:25.542Z,3.33
2023-05-05T14:56:28.677Z,6.95
2023-05-05T15:01:32.114Z,5.85
2023-05-05T15:06:36.971Z,5.28
2023-05-05T15:11:41.267Z,3.95
2023-05-05T15:16:46.679Z,3.65
2023-05-05T15:21:54.074Z,4.93
2023-05-05T15:26:57.227Z,3.85
2023-05-05T15:32:00.569Z,3.60
2023-05-05T15:37:05.217Z,3.83
2023-05-05T15:42:08.412Z,2.35
2023-05-05T15:47:11.646Z,2.20
2023-05-05T15:52:16.234Z,3.65
2023-05-05T15:57:19.257Z,2.22
2023-05-05T16:02:22.466Z,1.60
2023-05-05T16:07:27.094Z,45.53
2023-05-05T16:12:30.298Z,4.28
2023-05-05T16:17:33.509Z,3.88
2023-05-05T16:22:38.133Z,3.88
2023-05-05T16:27:41.343Z,5.38
2023-05-05T16:32:44.489Z,1.85
2023-05-05T16:37:48.984Z,4.60
2023-05-05T16:42:52.265Z,4.72
2023-05-05T16:47:56.229Z,2.17
2023-05-05T16:53:00.729Z,3.50
2023-05-05T16:58:03.929Z,4.43
2023-05-05T17:03:07.004Z,3.90
2023-05-05T17:08:14.180Z,9.35
2023-05-05T17:13:17.394Z,2.85
2023-05-05T17:18:22.702Z,2.13
2023-05-05T17:23:27.258Z,5.80
2023-05-05T17:28:30.363Z,2.60
2023-05-05T17:33:33.545Z,5.18
2023-05-05T17:38:38.075Z,2.47
2023-05-05T17:43:41.248Z,1.58
2023-05-05T17:48:44.473Z,5.18
2023-05-05T17:53:48.970Z,4.20
2023-05-05T17:58:52.515Z,2.95
2023-05-05T18:03:55.671Z,2.65
2023-05-05T18:09:00.243Z,3.67
2023-05-05T18:14:03.375Z,3.05
2023-05-05T18:19:06.503Z,3.25
2023-05-05T18:24:19.555Z,3.63
2023-05-05T18:29:23.798Z,5.28
2023-05-05T18:34:26.967Z,5.15
2023-05-05T18:39:31.805Z,3.78
2023-05-05T18:44:35.699Z,5.88
2023-05-05T18:49:38.788Z,3.70
2023-05-05T18:54:43.493Z,5.80
2023-05-05T18:59:46.692Z,5.55
2023-05-05T19:04:50.134Z,4.50
2023-05-05T19:09:54.792Z,6.82
2023-05-05T19:14:57.953Z,5.20
2023-05-05T19:20:01.310Z,5.80
2023-05-05T19:25:06.076Z,5.30
2023-05-05T19:30:09.684Z,5.90
2023-05-05T19:35:13.098Z,5.28
2023-05-05T19:40:17.837Z,6.35
2023-05-05T19:45:21.084Z,6.18
2023-05-05T19:50:24.449Z,5.75
2023-05-05T19:55:29.088Z,8.35
2023-05-05T20:00:32.244Z,5.95
2023-05-05T20:05:35.318Z,5.85
2023-05-05T20:10:40.821Z,8.63
2023-05-05T20:15:43.983Z,8.88
2023-05-05T20:20:47.196Z,8.77
2023-05-05T20:25:52.155Z,8.52
2023-05-05T20:30:55.307Z,5.72
2023-05-05T20:35:58.444Z,6.07
2023-05-05T20:41:03.050Z,6.10
2023-05-05T20:46:06.189Z,8.95
2023-05-05T20:51:09.428Z,8.10
2023-05-05T20:56:13.898Z,7.82
2023-05-05T21:01:16.989Z,8.65
2023-05-05T21:06:20.668Z,11.60
2023-05-05T21:11:25.137Z,7.53
2023-05-05T21:16:28.300Z,11.05
2023-05-05T21:21:31.827Z,7.85
2023-05-05T21:26:36.357Z,10.55
2023-05-05T21:31:39.581Z,8.88
2023-05-05T21:36:42.679Z,12.60
2023-05-05T21:41:47.151Z,11.55
2023-05-05T21:46:50.299Z,12.55
2023-05-05T21:51:53.426Z,10.75
2023-05-05T21:56:57.996Z,13.52
2023-05-05T22:02:01.278Z,11.43
2023-05-05T22:07:04.427Z,12.68
2023-05-05T22:12:08.950Z,16.88
2023-05-05T22:17:12.195Z,11.52
2023-05-05T22:22:16.502Z,11.43
2023-05-05T22:27:21.158Z,12.52
2023-05-05T22:32:24.333Z,12.32
2023-05-05T22:37:27.497Z,11.15
2023-05-05T22:42:31.916Z,10.40
2023-05-05T22:47:35.112Z,13.65
2023-05-05T22:52:38.389Z,9.73
2023-05-05T22:57:43.367Z,9.32
2023-05-05T23:02:46.651Z,11.70
2023-05-05T23:07:49.802Z,9.13
2023-05-05T23:12:54.870Z,9.13
2023-05-05T23:17:57.990Z,11.30
2023-05-05T23:23:01.260Z,11.73
2023-05-05T23:28:06.010Z,12.50
2023-05-05T23:33:09.379Z,11.70
2023-05-05T23:38:12.536Z,11.63
2023-05-05T23:43:16.963Z,12.45
2023-05-05T23:48:20.066Z,11.05
2023-05-05T23:53:23.190Z,10.27
2023-05-05T23:58:27.781Z,12.77
